سياتل، واشنطن, WA

04:32 AM PDT on سبتهبر 02, 2014 (GMT -0700)
Herrera, Inc. | Change Station
CLOSE
Current Station
Personal Weather Stations
Location: Seattle, WA
Elevation: 121 ft
Nearby Weather Stations

Elev 121 ft 47.62 °N, 122.34 °W | Updated 9 seconds ago

Overcast
غائم
61.2 °F
Feels Like 61.2 °F
N
0.0
ريح متغير ريح from SSW
Gusts 0.0 mph

هذا اليوم
High -- | Low -- °F
--% Chance of Precip.
Yesterday
High -- | Low -- °F
Precip. -- في
6:29 AM 7:47 PM
الهلال الأول, 50% visible
الضغط 29.96 في
وضوح الرؤية 10.0 أميال
سحابات Few 2100 ft
غائم 6000 ft
نقطة الندى 55 °F
الرطوبة 80%
Rainfall 0.00 في
عمق الثلج Not available.
الأشعة فوق البنفسجية 0 out of 12
Pollen 2.50 out of 12
جودة الهواء Not available.
Flu Activity Not available.
METAR KBFI 021053Z 00000KT 10SM FEW021 OVC060 18/12 A2996 RMK AO2 SLP143 T01830122

More Conditions Fewer Conditions

الضغط 29.96 في
وضوح الرؤية 10.0 أميال
سحابات Few 2100 ft
غائم 6000 ft
نقطة الندى 55 °F
الرطوبة 80%
Rainfall 0.00 في
عمق الثلج Not available.
الأشعة فوق البنفسجية 0 out of 12
Pollen 2.50 out of 12
جودة الهواء Not available.
Flu Activity Not available.
METAR KBFI 021053Z 00000KT 10SM FEW021 OVC060 18/12 A2996 RMK AO2 SLP143 T01830122

More Conditions Fewer Conditions

10-Day Weather Forecast

Almanac

علم الفلك

Sep. 02, 2014 Rise Set
Actual Time 6:29 AM PDT 7:47 PM PDT
Civil Twilight 5:57 AM PDT 8:19 PM PDT
Nautical Twilight 5:18 AM PDT 8:57 PM PDT
Astronomical Twilight 4:37 AM PDT 9:38 PM PDT
قمر 2:49 PM PDT لايوجد غروب للقمر
Length Of Visible Light 14h 21m
طول الیوم
13h 18m
Tomorrow will be 3m 20s shorter.
الهلال الأول, 50% of the Moon is Illuminated
هذا اليوم
الهلال الأول
Sep 8
بدر
Sep 15
الربع الآخر
Sep 24
New
Oct 1
الربع الاول

Today's Extremes

State Highs State Lows

Community

WunderPhotos

Upload Photos

1,749,621 photos uploaded!

WunderBlogs® & News

By Dr. Jeff Masters
Director of Meteorology, Weather Underground
By Kari Strenfel
Meteorologist, Weather Underground
By Christopher C. Burt
Weather Historian, Weather Underground
September 2, 2014
September 2, 2014
September 2, 2014

Nearby

جودة الهواء

  جودة الهواء AQ Index Pollutant
الثلاثاء جيد
OZONE
الثلاثاء جيد
PM2.5
الأربعاء جيد
OZONE
الأربعاء جيد
PM2.5

عمق الثلج

Station Depth Elevation
Alpine Meadows 0 in 3500 ft
Skookum Creek 0 in 3920 ft
Mount Crag 0 in 4050 ft
Dungeness 0 in 4100 ft
Mount Gardner 0 in 3000 ft

Earthquake Activity

City Distance Mag. Time & Date
No recent earthquake activity has been reported nearby.
Minimum magnitude displayed is 2.5.

Coastal Water Temperatures

مكان درجات الحرارة
Port Townsend, WA 53.1 °F
Seattle, WA 55.9 °F
Friday Harbor, WA 53.1 °F
Tacoma, WA 55.9 °F

Nearby Weather Stations